Other Surface Observations
Issued by NWS Great Falls, MT

Home | Current Version | Previous Version | Text Only | Print | Product List | Glossary On
Versions: 1 2 3 4 5 6 7 8 9 10 11 12 13 14 15 16 17 18 19 20 21 22 23 24 25 26 27 28 29 30 31 32 33 34 35 36 37 38 39 40 41 42 43 44 45 46 47 48 49 50
000
SXUS55 KTFX 030715
OSOTFX
AREA AWOS OBSERVATIONS
NATIONAL WEATHER SERVICE GREAT FALLS MT
1214 AM MST SAT DEC 03 2016

METAR KPWD 030715Z AUTO 12005KT 6SM M07/M07 A2991 RMK PLENTYWOOD
METAR KPO1 030715Z AUTO 20008KT 10SM M02/M05 A2992 RMK POPLAR
METAR K1S3 030715Z AUTO 00000KT 10SM M04/M07 A2994 RMK FORSYTH
METAR KS71 030715Z AUTO 27004KT 10SM 01/M02 A2982 RMK CHINOOK
METAR K38S 030715Z AUTO 00000KT 10SM M03/M04 A3003 RMK DEER LODGE
METAR K3U3 030715Z AUTO 17012G17KT 10SM M02/M08 A3001 RMK ANACONDA
METAR K6S5 030715Z AUTO 17012KT 10SM 02/M08 A3006 RMK HAMILTON
METAR KS59 030715Z AUTO 00000KT 9SM 00/M01 A2999 RMK LIBBY
METAR K88M 030715Z AUTO 13014G19KT 10SM 01/M03 A2997 RMK EUREKA



USA.gov is the U.S. government's official web portal to all federal, state and local government web resources and services.